sensor_id;sensor_type;location;lat;lon;timestamp;P1;durP1;ratioP1;P2;durP2;ratioP2
64339;SDS011;63709;53.258;-8.814;2023-04-01T00:00:30;30.40;;;4.75;;
64339;SDS011;63709;53.258;-8.814;2023-04-01T00:02:56;31.20;;;3.97;;
64339;SDS011;63709;53.258;-8.814;2023-04-01T00:05:23;19.58;;;3.63;;
64339;SDS011;63709;53.258;-8.814;2023-04-01T00:07:51;24.30;;;4.22;;
64339;SDS011;63709;53.258;-8.814;2023-04-01T00:10:17;28.67;;;3.55;;
64339;SDS011;63709;53.258;-8.814;2023-04-01T00:12:43;14.73;;;3.40;;
64339;SDS011;63709;53.258;-8.814;2023-04-01T00:15:10;25.70;;;4.00;;
64339;SDS011;63709;53.258;-8.814;2023-04-01T00:17:36;20.90;;;3.42;;
64339;SDS011;63709;53.258;-8.814;2023-04-01T00:20:04;21.38;;;3.42;;
64339;SDS011;63709;53.258;-8.814;2023-04-01T00:22:30;27.27;;;4.10;;
64339;SDS011;63709;53.258;-8.814;2023-04-01T00:24:56;18.23;;;3.28;;
64339;SDS011;63709;53.258;-8.814;2023-04-01T00:27:24;20.10;;;3.22;;
64339;SDS011;63709;53.258;-8.814;2023-04-01T00:29:50;16.75;;;3.40;;
64339;SDS011;63709;53.258;-8.814;2023-04-01T00:32:16;24.42;;;2.95;;
64339;SDS011;63709;53.258;-8.814;2023-04-01T00:34:42;27.15;;;3.40;;
64339;SDS011;63709;53.258;-8.814;2023-04-01T00:37:09;19.00;;;3.50;;
64339;SDS011;63709;53.258;-8.814;2023-04-01T00:39:35;18.98;;;3.55;;
64339;SDS011;63709;53.258;-8.814;2023-04-01T00:42:01;21.75;;;4.15;;
64339;SDS011;63709;53.258;-8.814;2023-04-01T00:44:29;26.70;;;3.88;;
64339;SDS011;63709;53.258;-8.814;2023-04-01T00:46:58;22.65;;;3.33;;
64339;SDS011;63709;53.258;-8.814;2023-04-01T00:49:31;20.90;;;3.47;;
64339;SDS011;63709;53.258;-8.814;2023-04-01T00:52:01;19.65;;;3.13;;
64339;SDS011;63709;53.258;-8.814;2023-04-01T00:54:30;18.15;;;3.80;;
64339;SDS011;63709;53.258;-8.814;2023-04-01T01:02:03;18.63;;;3.20;;
64339;SDS011;63709;53.258;-8.814;2023-04-01T01:04:33;18.75;;;3.63;;
64339;SDS011;63709;53.258;-8.814;2023-04-01T01:14:56;14.50;;;2.97;;
64339;SDS011;63709;53.258;-8.814;2023-04-01T01:17:42;23.15;;;2.95;;
64339;SDS011;63709;53.258;-8.814;2023-04-01T01:26:29;17.92;;;3.30;;
64339;SDS011;63709;53.258;-8.814;2023-04-01T01:31:55;24.00;;;3.13;;
64339;SDS011;63709;53.258;-8.814;2023-04-01T01:34:46;14.93;;;3.00;;
64339;SDS011;63709;53.258;-8.814;2023-04-01T01:37:29;17.38;;;2.72;;
64339;SDS011;63709;53.258;-8.814;2023-04-01T01:39:58;14.88;;;2.72;;
64339;SDS011;63709;53.258;-8.814;2023-04-01T01:42:27;12.20;;;2.53;;
64339;SDS011;63709;53.258;-8.814;2023-04-01T01:44:56;18.50;;;3.03;;
64339;SDS011;63709;53.258;-8.814;2023-04-01T01:47:25;24.52;;;3.15;;
64339;SDS011;63709;53.258;-8.814;2023-04-01T01:49:53;17.50;;;3.15;;
64339;SDS011;63709;53.258;-8.814;2023-04-01T01:52:21;17.13;;;2.60;;
64339;SDS011;63709;53.258;-8.814;2023-04-01T01:54:54;13.75;;;2.83;;
64339;SDS011;63709;53.258;-8.814;2023-04-01T01:57:34;12.27;;;3.03;;
64339;SDS011;63709;53.258;-8.814;2023-04-01T02:00:06;13.60;;;2.53;;
64339;SDS011;63709;53.258;-8.814;2023-04-01T02:02:39;15.02;;;3.20;;
64339;SDS011;63709;53.258;-8.814;2023-04-01T02:05:07;14.57;;;3.05;;
64339;SDS011;63709;53.258;-8.814;2023-04-01T02:07:36;10.82;;;2.38;;
64339;SDS011;63709;53.258;-8.814;2023-04-01T02:10:05;17.25;;;2.67;;
64339;SDS011;63709;53.258;-8.814;2023-04-01T02:12:32;13.75;;;2.58;;
64339;SDS011;63709;53.258;-8.814;2023-04-01T02:15:09;13.68;;;2.28;;
64339;SDS011;63709;53.258;-8.814;2023-04-01T02:17:41;18.90;;;2.63;;
64339;SDS011;63709;53.258;-8.814;2023-04-01T02:20:17;13.60;;;2.20;;
64339;SDS011;63709;53.258;-8.814;2023-04-01T02:22:48;13.52;;;2.20;;
64339;SDS011;63709;53.258;-8.814;2023-04-01T02:25:18;17.23;;;2.63;;
64339;SDS011;63709;53.258;-8.814;2023-04-01T02:27:46;11.45;;;2.22;;
64339;SDS011;63709;53.258;-8.814;2023-04-01T02:30:12;16.35;;;2.42;;
64339;SDS011;63709;53.258;-8.814;2023-04-01T02:32:40;15.43;;;2.25;;
64339;SDS011;63709;53.258;-8.814;2023-04-01T02:35:09;13.50;;;2.45;;
64339;SDS011;63709;53.258;-8.814;2023-04-01T02:37:36;10.48;;;2.22;;
64339;SDS011;63709;53.258;-8.814;2023-04-01T02:40:04;10.75;;;2.30;;
64339;SDS011;63709;53.258;-8.814;2023-04-01T02:42:32;8.88;;;1.80;;
64339;SDS011;63709;53.258;-8.814;2023-04-01T02:47:24;11.27;;;1.90;;
64339;SDS011;63709;53.258;-8.814;2023-04-01T02:49:51;11.65;;;1.52;;
64339;SDS011;63709;53.258;-8.814;2023-04-01T02:52:23;6.47;;;1.80;;
64339;SDS011;63709;53.258;-8.814;2023-04-01T02:54:51;10.40;;;1.60;;
64339;SDS011;63709;53.258;-8.814;2023-04-01T02:57:17;6.40;;;1.80;;
64339;SDS011;63709;53.258;-8.814;2023-04-01T02:59:44;8.25;;;1.73;;
64339;SDS011;63709;53.258;-8.814;2023-04-01T03:02:09;8.35;;;1.33;;
64339;SDS011;63709;53.258;-8.814;2023-04-01T03:04:35;13.32;;;1.80;;
64339;SDS011;63709;53.258;-8.814;2023-04-01T03:07:00;13.90;;;2.00;;
64339;SDS011;63709;53.258;-8.814;2023-04-01T03:09:27;11.20;;;2.15;;
64339;SDS011;63709;53.258;-8.814;2023-04-01T03:11:53;13.68;;;2.17;;
64339;SDS011;63709;53.258;-8.814;2023-04-01T03:14:19;6.18;;;1.33;;
64339;SDS011;63709;53.258;-8.814;2023-04-01T03:16:45;5.47;;;1.10;;
64339;SDS011;63709;53.258;-8.814;2023-04-01T03:19:13;8.30;;;1.63;;
64339;SDS011;63709;53.258;-8.814;2023-04-01T03:21:40;8.60;;;1.50;;
64339;SDS011;63709;53.258;-8.814;2023-04-01T03:24:08;10.55;;;1.70;;
64339;SDS011;63709;53.258;-8.814;2023-04-01T03:26:33;6.70;;;1.50;;
64339;SDS011;63709;53.258;-8.814;2023-04-01T03:28:59;7.22;;;1.33;;
64339;SDS011;63709;53.258;-8.814;2023-04-01T03:31:25;6.93;;;1.35;;
64339;SDS011;63709;53.258;-8.814;2023-04-01T03:33:51;7.88;;;1.23;;
64339;SDS011;63709;53.258;-8.814;2023-04-01T03:36:16;5.13;;;1.17;;
64339;SDS011;63709;53.258;-8.814;2023-04-01T03:38:43;2.03;;;0.93;;
64339;SDS011;63709;53.258;-8.814;2023-04-01T03:41:13;6.43;;;1.02;;
64339;SDS011;63709;53.258;-8.814;2023-04-01T03:43:40;5.28;;;1.30;;
64339;SDS011;63709;53.258;-8.814;2023-04-01T03:46:06;5.72;;;1.58;;
64339;SDS011;63709;53.258;-8.814;2023-04-01T03:48:31;9.63;;;1.20;;
64339;SDS011;63709;53.258;-8.814;2023-04-01T03:50:57;7.00;;;1.20;;
64339;SDS011;63709;53.258;-8.814;2023-04-01T03:53:26;6.20;;;1.08;;
64339;SDS011;63709;53.258;-8.814;2023-04-01T03:55:52;7.22;;;1.33;;
64339;SDS011;63709;53.258;-8.814;2023-04-01T03:58:19;8.95;;;1.33;;
64339;SDS011;63709;53.258;-8.814;2023-04-01T04:03:11;10.93;;;1.08;;
64339;SDS011;63709;53.258;-8.814;2023-04-01T04:05:37;9.95;;;1.17;;
64339;SDS011;63709;53.258;-8.814;2023-04-01T04:08:03;7.20;;;1.25;;
64339;SDS011;63709;53.258;-8.814;2023-04-01T04:10:29;4.32;;;1.15;;
64339;SDS011;63709;53.258;-8.814;2023-04-01T04:12:55;4.82;;;1.10;;
64339;SDS011;63709;53.258;-8.814;2023-04-01T04:15:22;3.15;;;0.82;;
64339;SDS011;63709;53.258;-8.814;2023-04-01T04:17:48;4.60;;;1.13;;
64339;SDS011;63709;53.258;-8.814;2023-04-01T04:20:14;8.63;;;1.08;;
64339;SDS011;63709;53.258;-8.814;2023-04-01T04:22:40;10.50;;;1.20;;
64339;SDS011;63709;53.258;-8.814;2023-04-01T04:25:06;8.43;;;1.67;;
64339;SDS011;63709;53.258;-8.814;2023-04-01T04:27:33;7.50;;;1.15;;
64339;SDS011;63709;53.258;-8.814;2023-04-01T04:29:58;3.95;;;1.08;;
64339;SDS011;63709;53.258;-8.814;2023-04-01T04:32:24;10.85;;;1.67;;
64339;SDS011;63709;53.258;-8.814;2023-04-01T04:34:50;6.18;;;1.42;;
64339;SDS011;63709;53.258;-8.814;2023-04-01T04:37:15;4.78;;;1.20;;
64339;SDS011;63709;53.258;-8.814;2023-04-01T04:39:41;12.25;;;1.48;;
64339;SDS011;63709;53.258;-8.814;2023-04-01T04:44:36;13.48;;;1.75;;
64339;SDS011;63709;53.258;-8.814;2023-04-01T04:47:02;7.78;;;1.75;;
64339;SDS011;63709;53.258;-8.814;2023-04-01T04:49:28;7.57;;;1.20;;
64339;SDS011;63709;53.258;-8.814;2023-04-01T04:51:54;6.97;;;1.88;;
64339;SDS011;63709;53.258;-8.814;2023-04-01T04:54:20;13.90;;;1.48;;
64339;SDS011;63709;53.258;-8.814;2023-04-01T04:56:45;6.97;;;1.10;;
64339;SDS011;63709;53.258;-8.814;2023-04-01T04:59:11;7.15;;;1.70;;
64339;SDS011;63709;53.258;-8.814;2023-04-01T05:01:37;7.90;;;1.55;;
64339;SDS011;63709;53.258;-8.814;2023-04-01T05:04:05;6.25;;;1.30;;
64339;SDS011;63709;53.258;-8.814;2023-04-01T05:06:31;7.03;;;1.13;;
64339;SDS011;63709;53.258;-8.814;2023-04-01T05:08:57;4.78;;;0.90;;
64339;SDS011;63709;53.258;-8.814;2023-04-01T05:11:23;4.75;;;0.93;;
64339;SDS011;63709;53.258;-8.814;2023-04-01T05:13:51;7.47;;;1.30;;
64339;SDS011;63709;53.258;-8.814;2023-04-01T05:16:19;15.77;;;2.22;;
64339;SDS011;63709;53.258;-8.814;2023-04-01T05:18:47;8.48;;;1.15;;
64339;SDS011;63709;53.258;-8.814;2023-04-01T05:21:13;5.85;;;1.02;;
64339;SDS011;63709;53.258;-8.814;2023-04-01T05:23:40;7.50;;;1.70;;
64339;SDS011;63709;53.258;-8.814;2023-04-01T05:26:12;7.50;;;1.20;;
64339;SDS011;63709;53.258;-8.814;2023-04-01T05:28:39;4.00;;;1.05;;
64339;SDS011;63709;53.258;-8.814;2023-04-01T05:31:05;6.72;;;1.38;;
64339;SDS011;63709;53.258;-8.814;2023-04-01T05:33:31;5.80;;;1.33;;
64339;SDS011;63709;53.258;-8.814;2023-04-01T05:36:05;8.23;;;1.50;;
64339;SDS011;63709;53.258;-8.814;2023-04-01T05:38:35;6.80;;;1.25;;
64339;SDS011;63709;53.258;-8.814;2023-04-01T05:41:01;5.93;;;1.38;;
64339;SDS011;63709;53.258;-8.814;2023-04-01T05:43:28;12.90;;;1.70;;
64339;SDS011;63709;53.258;-8.814;2023-04-01T05:45:56;7.50;;;1.20;;
64339;SDS011;63709;53.258;-8.814;2023-04-01T05:48:23;12.15;;;1.70;;
64339;SDS011;63709;53.258;-8.814;2023-04-01T05:50:49;6.35;;;1.15;;
64339;SDS011;63709;53.258;-8.814;2023-04-01T05:53:14;5.20;;;1.10;;
64339;SDS011;63709;53.258;-8.814;2023-04-01T05:55:40;8.17;;;1.00;;
64339;SDS011;63709;53.258;-8.814;2023-04-01T05:58:05;7.40;;;0.90;;
64339;SDS011;63709;53.258;-8.814;2023-04-01T06:00:32;5.22;;;0.93;;
64339;SDS011;63709;53.258;-8.814;2023-04-01T06:03:00;4.20;;;0.80;;
64339;SDS011;63709;53.258;-8.814;2023-04-01T06:05:31;4.47;;;0.98;;
64339;SDS011;63709;53.258;-8.814;2023-04-01T06:08:17;18.75;;;1.95;;
64339;SDS011;63709;53.258;-8.814;2023-04-01T06:19:12;10.15;;;1.90;;
64339;SDS011;63709;53.258;-8.814;2023-04-01T06:29:48;8.73;;;1.38;;
64339;SDS011;63709;53.258;-8.814;2023-04-01T06:32:35;9.05;;;1.60;;
64339;SDS011;63709;53.258;-8.814;2023-04-01T06:46:23;10.82;;;1.55;;
64339;SDS011;63709;53.258;-8.814;2023-04-01T06:49:21;9.73;;;1.27;;
64339;SDS011;63709;53.258;-8.814;2023-04-01T06:52:05;13.68;;;1.98;;
64339;SDS011;63709;53.258;-8.814;2023-04-01T06:54:40;11.98;;;1.55;;
64339;SDS011;63709;53.258;-8.814;2023-04-01T06:57:21;9.48;;;1.73;;
64339;SDS011;63709;53.258;-8.814;2023-04-01T06:59:55;13.13;;;1.70;;
64339;SDS011;63709;53.258;-8.814;2023-04-01T07:05:03;7.15;;;1.75;;
64339;SDS011;63709;53.258;-8.814;2023-04-01T07:07:46;8.65;;;1.60;;
64339;SDS011;63709;53.258;-8.814;2023-04-01T07:13:00;9.38;;;1.85;;
64339;SDS011;63709;53.258;-8.814;2023-04-01T07:15:33;5.55;;;1.10;;
64339;SDS011;63709;53.258;-8.814;2023-04-01T07:18:12;6.50;;;1.33;;
64339;SDS011;63709;53.258;-8.814;2023-04-01T07:20:42;9.40;;;1.70;;
64339;SDS011;63709;53.258;-8.814;2023-04-01T07:23:15;8.30;;;1.48;;
64339;SDS011;63709;53.258;-8.814;2023-04-01T07:25:51;4.85;;;1.40;;
64339;SDS011;63709;53.258;-8.814;2023-04-01T07:28:20;8.15;;;1.80;;
64339;SDS011;63709;53.258;-8.814;2023-04-01T07:33:24;4.88;;;1.10;;
64339;SDS011;63709;53.258;-8.814;2023-04-01T07:36:26;6.45;;;1.08;;
64339;SDS011;63709;53.258;-8.814;2023-04-01T07:41:59;7.90;;;1.08;;
64339;SDS011;63709;53.258;-8.814;2023-04-01T07:55:33;6.47;;;1.17;;
64339;SDS011;63709;53.258;-8.814;2023-04-01T08:01:06;4.28;;;1.23;;
64339;SDS011;63709;53.258;-8.814;2023-04-01T08:23:17;10.18;;;2.05;;
64339;SDS011;63709;53.258;-8.814;2023-04-01T08:25:58;8.43;;;1.85;;
64339;SDS011;63709;53.258;-8.814;2023-04-01T08:31:36;8.57;;;1.83;;
64339;SDS011;63709;53.258;-8.814;2023-04-01T08:34:10;7.32;;;1.85;;
64339;SDS011;63709;53.258;-8.814;2023-04-01T08:37:28;8.70;;;2.30;;
64339;SDS011;63709;53.258;-8.814;2023-04-01T08:39:41;9.20;;;1.70;;
64339;SDS011;63709;53.258;-8.814;2023-04-01T08:42:45;12.52;;;1.98;;
64339;SDS011;63709;53.258;-8.814;2023-04-01T08:45:44;12.35;;;1.83;;
64339;SDS011;63709;53.258;-8.814;2023-04-01T08:51:10;8.50;;;1.90;;
64339;SDS011;63709;53.258;-8.814;2023-04-01T08:54:03;13.27;;;2.20;;
64339;SDS011;63709;53.258;-8.814;2023-04-01T08:56:33;10.15;;;1.63;;
64339;SDS011;63709;53.258;-8.814;2023-04-01T09:21:04;10.40;;;2.28;;
64339;SDS011;63709;53.258;-8.814;2023-04-01T09:41:12;8.02;;;2.00;;
64339;SDS011;63709;53.258;-8.814;2023-04-01T09:46:57;9.05;;;2.47;;
64339;SDS011;63709;53.258;-8.814;2023-04-01T10:12:02;13.27;;;2.10;;
64339;SDS011;63709;53.258;-8.814;2023-04-01T10:15:28;14.10;;;1.95;;
64339;SDS011;63709;53.258;-8.814;2023-04-01T10:17:50;13.38;;;1.98;;
64339;SDS011;63709;53.258;-8.814;2023-04-01T10:26:44;11.88;;;1.80;;
64339;SDS011;63709;53.258;-8.814;2023-04-01T10:45:47;8.27;;;1.48;;
64339;SDS011;63709;53.258;-8.814;2023-04-01T10:54:39;9.20;;;1.40;;
64339;SDS011;63709;53.258;-8.814;2023-04-01T11:14:31;8.70;;;1.40;;
64339;SDS011;63709;53.258;-8.814;2023-04-01T11:31:29;5.07;;;1.45;;
64339;SDS011;63709;53.258;-8.814;2023-04-01T11:47:58;6.35;;;1.70;;
64339;SDS011;63709;53.258;-8.814;2023-04-01T11:56:05;8.75;;;1.55;;
64339;SDS011;63709;53.258;-8.814;2023-04-01T12:01:44;7.25;;;1.70;;
64339;SDS011;63709;53.258;-8.814;2023-04-01T12:04:27;8.90;;;1.70;;
64339;SDS011;63709;53.258;-8.814;2023-04-01T12:12:36;5.28;;;1.30;;
64339;SDS011;63709;53.258;-8.814;2023-04-01T12:15:15;10.23;;;1.40;;
64339;SDS011;63709;53.258;-8.814;2023-04-01T12:17:56;8.98;;;1.77;;
64339;SDS011;63709;53.258;-8.814;2023-04-01T12:46:00;8.15;;;1.63;;
64339;SDS011;63709;53.258;-8.814;2023-04-01T13:06:00;7.97;;;1.83;;
64339;SDS011;63709;53.258;-8.814;2023-04-01T13:08:59;12.07;;;1.70;;
64339;SDS011;63709;53.258;-8.814;2023-04-01T13:17:30;12.70;;;2.55;;
64339;SDS011;63709;53.258;-8.814;2023-04-01T13:20:59;9.43;;;1.98;;
64339;SDS011;63709;53.258;-8.814;2023-04-01T13:23:32;19.88;;;7.03;;
64339;SDS011;63709;53.258;-8.814;2023-04-01T13:29:16;11.20;;;1.92;;
64339;SDS011;63709;53.258;-8.814;2023-04-01T13:56:07;12.80;;;2.00;;
64339;SDS011;63709;53.258;-8.814;2023-04-01T14:01:46;8.02;;;1.63;;
64339;SDS011;63709;53.258;-8.814;2023-04-01T14:04:42;9.25;;;2.00;;
64339;SDS011;63709;53.258;-8.814;2023-04-01T14:10:24;6.80;;;1.77;;
64339;SDS011;63709;53.258;-8.814;2023-04-01T14:13:09;9.20;;;2.22;;
64339;SDS011;63709;53.258;-8.814;2023-04-01T14:31:41;10.98;;;2.10;;
64339;SDS011;63709;53.258;-8.814;2023-04-01T14:54:06;8.30;;;1.60;;
64339;SDS011;63709;53.258;-8.814;2023-04-01T14:56:41;4.78;;;1.60;;
64339;SDS011;63709;53.258;-8.814;2023-04-01T14:59:29;8.00;;;2.08;;
64339;SDS011;63709;53.258;-8.814;2023-04-01T15:07:45;14.02;;;2.58;;
64339;SDS011;63709;53.258;-8.814;2023-04-01T15:13:15;7.40;;;1.85;;
64339;SDS011;63709;53.258;-8.814;2023-04-01T15:15:59;8.30;;;1.90;;
64339;SDS011;63709;53.258;-8.814;2023-04-01T15:18:57;14.98;;;2.38;;
64339;SDS011;63709;53.258;-8.814;2023-04-01T15:24:35;7.90;;;2.10;;
64339;SDS011;63709;53.258;-8.814;2023-04-01T15:38:31;6.63;;;1.52;;
64339;SDS011;63709;53.258;-8.814;2023-04-01T15:51:54;5.82;;;1.98;;
64339;SDS011;63709;53.258;-8.814;2023-04-01T16:00:31;8.15;;;1.80;;
64339;SDS011;63709;53.258;-8.814;2023-04-01T16:25:55;11.32;;;2.03;;
64339;SDS011;63709;53.258;-8.814;2023-04-01T16:28:34;16.95;;;1.95;;
64339;SDS011;63709;53.258;-8.814;2023-04-01T16:33:55;14.85;;;2.65;;
64339;SDS011;63709;53.258;-8.814;2023-04-01T16:36:26;10.98;;;2.13;;
64339;SDS011;63709;53.258;-8.814;2023-04-01T16:39:09;10.50;;;2.65;;
64339;SDS011;63709;53.258;-8.814;2023-04-01T16:50:39;10.20;;;2.15;;
64339;SDS011;63709;53.258;-8.814;2023-04-01T16:55:47;9.48;;;1.58;;
64339;SDS011;63709;53.258;-8.814;2023-04-01T16:58:38;15.85;;;3.15;;
64339;SDS011;63709;53.258;-8.814;2023-04-01T17:01:13;8.20;;;1.60;;
64339;SDS011;63709;53.258;-8.814;2023-04-01T17:03:52;9.85;;;2.20;;
64339;SDS011;63709;53.258;-8.814;2023-04-01T17:18:05;8.35;;;2.20;;
64339;SDS011;63709;53.258;-8.814;2023-04-01T17:20:54;10.18;;;2.50;;
64339;SDS011;63709;53.258;-8.814;2023-04-01T17:23:36;14.23;;;2.75;;
64339;SDS011;63709;53.258;-8.814;2023-04-01T17:28:45;13.23;;;2.72;;
64339;SDS011;63709;53.258;-8.814;2023-04-01T17:41:59;8.45;;;2.47;;
64339;SDS011;63709;53.258;-8.814;2023-04-01T17:44:38;13.63;;;2.30;;
64339;SDS011;63709;53.258;-8.814;2023-04-01T17:50:20;12.40;;;2.10;;
64339;SDS011;63709;53.258;-8.814;2023-04-01T18:04:23;12.10;;;3.15;;
64339;SDS011;63709;53.258;-8.814;2023-04-01T18:24:00;11.93;;;2.60;;
64339;SDS011;63709;53.258;-8.814;2023-04-01T18:26:36;8.98;;;2.53;;
64339;SDS011;63709;53.258;-8.814;2023-04-01T18:32:42;22.10;;;3.83;;
64339;SDS011;63709;53.258;-8.814;2023-04-01T18:35:00;10.25;;;2.40;;
64339;SDS011;63709;53.258;-8.814;2023-04-01T18:37:42;8.90;;;2.55;;
64339;SDS011;63709;53.258;-8.814;2023-04-01T18:43:32;10.73;;;2.00;;
64339;SDS011;63709;53.258;-8.814;2023-04-01T18:46:19;10.90;;;2.55;;
64339;SDS011;63709;53.258;-8.814;2023-04-01T18:49:06;9.57;;;2.17;;
64339;SDS011;63709;53.258;-8.814;2023-04-01T18:54:32;8.88;;;1.90;;
64339;SDS011;63709;53.258;-8.814;2023-04-01T18:57:16;4.90;;;1.92;;
64339;SDS011;63709;53.258;-8.814;2023-04-01T18:59:53;10.18;;;2.08;;
64339;SDS011;63709;53.258;-8.814;2023-04-01T19:02:25;16.90;;;6.15;;
64339;SDS011;63709;53.258;-8.814;2023-04-01T19:05:02;11.98;;;2.60;;
64339;SDS011;63709;53.258;-8.814;2023-04-01T19:07:46;14.05;;;3.78;;
64339;SDS011;63709;53.258;-8.814;2023-04-01T19:23:34;14.40;;;3.38;;
64339;SDS011;63709;53.258;-8.814;2023-04-01T19:27:03;28.88;;;13.65;;
64339;SDS011;63709;53.258;-8.814;2023-04-01T19:38:19;15.65;;;2.45;;
64339;SDS011;63709;53.258;-8.814;2023-04-01T19:44:13;24.25;;;3.22;;
64339;SDS011;63709;53.258;-8.814;2023-04-01T19:52:19;15.60;;;2.50;;
64339;SDS011;63709;53.258;-8.814;2023-04-01T19:57:59;13.13;;;2.97;;
64339;SDS011;63709;53.258;-8.814;2023-04-01T20:01:00;15.70;;;2.55;;
64339;SDS011;63709;53.258;-8.814;2023-04-01T20:09:04;7.75;;;2.25;;
64339;SDS011;63709;53.258;-8.814;2023-04-01T20:11:59;10.63;;;2.70;;
64339;SDS011;63709;53.258;-8.814;2023-04-01T20:17:09;16.10;;;2.78;;
64339;SDS011;63709;53.258;-8.814;2023-04-01T20:41:55;12.65;;;3.22;;
64339;SDS011;63709;53.258;-8.814;2023-04-01T21:00:46;13.95;;;5.00;;
64339;SDS011;63709;53.258;-8.814;2023-04-01T21:09:06;18.15;;;5.43;;
64339;SDS011;63709;53.258;-8.814;2023-04-01T21:14:46;19.13;;;5.70;;
64339;SDS011;63709;53.258;-8.814;2023-04-01T21:25:22;15.73;;;5.32;;
64339;SDS011;63709;53.258;-8.814;2023-04-01T21:28:07;16.55;;;4.82;;
64339;SDS011;63709;53.258;-8.814;2023-04-01T21:34:07;15.57;;;5.13;;
64339;SDS011;63709;53.258;-8.814;2023-04-01T21:37:27;15.43;;;4.57;;
64339;SDS011;63709;53.258;-8.814;2023-04-01T22:11:15;11.77;;;4.67;;
64339;SDS011;63709;53.258;-8.814;2023-04-01T22:13:39;13.13;;;4.82;;
64339;SDS011;63709;53.258;-8.814;2023-04-01T22:16:32;27.55;;;5.95;;
64339;SDS011;63709;53.258;-8.814;2023-04-01T22:19:16;11.13;;;4.57;;
64339;SDS011;63709;53.258;-8.814;2023-04-01T22:29:58;12.90;;;4.38;;
64339;SDS011;63709;53.258;-8.814;2023-04-01T22:32:45;15.30;;;4.75;;
64339;SDS011;63709;53.258;-8.814;2023-04-01T22:35:27;14.18;;;4.10;;
64339;SDS011;63709;53.258;-8.814;2023-04-01T22:40:42;15.45;;;5.18;;
64339;SDS011;63709;53.258;-8.814;2023-04-01T22:43:23;11.88;;;4.32;;
64339;SDS011;63709;53.258;-8.814;2023-04-01T22:51:43;13.68;;;4.30;;
64339;SDS011;63709;53.258;-8.814;2023-04-01T22:54:23;16.02;;;4.38;;
64339;SDS011;63709;53.258;-8.814;2023-04-01T22:56:57;12.98;;;4.93;;
64339;SDS011;63709;53.258;-8.814;2023-04-01T22:59:30;17.42;;;5.13;;
64339;SDS011;63709;53.258;-8.814;2023-04-01T23:02:15;16.25;;;4.30;;
64339;SDS011;63709;53.258;-8.814;2023-04-01T23:04:49;17.55;;;4.68;;
64339;SDS011;63709;53.258;-8.814;2023-04-01T23:07:28;9.85;;;5.15;;
64339;SDS011;63709;53.258;-8.814;2023-04-01T23:09:58;14.27;;;4.70;;
64339;SDS011;63709;53.258;-8.814;2023-04-01T23:12:27;12.18;;;4.63;;
64339;SDS011;63709;53.258;-8.814;2023-04-01T23:14:56;11.63;;;4.18;;
64339;SDS011;63709;53.258;-8.814;2023-04-01T23:28:07;12.80;;;4.10;;
64339;SDS011;63709;53.258;-8.814;2023-04-01T23:33:15;10.00;;;3.78;;
64339;SDS011;63709;53.258;-8.814;2023-04-01T23:35:51;11.07;;;4.22;;
64339;SDS011;63709;53.258;-8.814;2023-04-01T23:38:22;11.70;;;4.40;;
64339;SDS011;63709;53.258;-8.814;2023-04-01T23:40:51;12.65;;;4.93;;
64339;SDS011;63709;53.258;-8.814;2023-04-01T23:43:22;18.23;;;4.35;;
64339;SDS011;63709;53.258;-8.814;2023-04-01T23:45:53;13.20;;;3.75;;
64339;SDS011;63709;53.258;-8.814;2023-04-01T23:48:23;17.33;;;4.28;;
64339;SDS011;63709;53.258;-8.814;2023-04-01T23:50:56;14.88;;;3.88;;
64339;SDS011;63709;53.258;-8.814;2023-04-01T23:53:25;18.23;;;4.20;;
64339;SDS011;63709;53.258;-8.814;2023-04-01T23:55:55;12.30;;;4.18;;
64339;SDS011;63709;53.258;-8.814;2023-04-01T23:58:23;11.88;;;3.38;;
